Time;durP1;ratioP1;P1;durP2;ratioP2;P2;SDS_P1;SDS_P2;PMS_P1;PMS_P2;Temp;Humidity;BMP_temperature;BMP_pressure;BME280_temperature;BME280_humidity;BME280_pressure;Samples;Min_cycle;Max_cycle;Signal;HPM_P1;HPM_P2
2021/04/21 00:02:17;;;;;;;10.75;4.68;;;12.70;63.10;;;;;;5071985;28;20082;-70
2021/04/21 00:04:47;;;;;;;10.27;5.38;;;12.70;63.40;;;;;;5071611;28;20574;-70
2021/04/21 00:07:18;;;;;;;10.48;5.10;;;12.70;63.60;;;;;;5089339;28;20043;-70
2021/04/21 00:09:46;;;;;;;7.50;4.38;;;12.70;63.70;;;;;;5086963;28;20031;-71
2021/04/21 00:12:12;;;;;;;10.43;4.90;;;12.70;63.90;;;;;;5071735;28;20064;-70
2021/04/21 00:14:38;;;;;;;11.73;5.32;;;12.70;64.10;;;;;;5071632;28;20484;-70
2021/04/21 00:17:06;;;;;;;7.65;4.60;;;12.70;64.20;;;;;;5071361;28;20048;-71
2021/04/21 00:19:34;;;;;;;11.70;4.93;;;12.70;64.50;;;;;;5072311;28;20040;-71
2021/04/21 00:22:01;;;;;;;9.63;5.65;;;12.70;64.70;;;;;;5072038;28;20044;-70
2021/04/21 00:24:29;;;;;;;11.38;4.65;;;12.70;64.90;;;;;;5071950;28;20024;-71
2021/04/21 00:26:56;;;;;;;9.70;5.03;;;12.70;65.10;;;;;;5086065;28;20032;-70
2021/04/21 00:29:23;;;;;;;10.23;5.25;;;12.70;65.10;;;;;;5085923;28;20481;-70
2021/04/21 00:31:50;;;;;;;11.27;4.70;;;12.60;65.30;;;;;;5084804;28;20047;-70
2021/04/21 00:34:18;;;;;;;9.90;5.18;;;12.60;65.50;;;;;;5086774;28;20493;-70
2021/04/21 00:36:47;;;;;;;11.93;5.18;;;12.50;65.70;;;;;;5071358;28;20055;-70
2021/04/21 00:39:15;;;;;;;9.57;5.05;;;12.50;66.00;;;;;;5072304;28;20028;-70
2021/04/21 00:41:54;;;;;;;8.30;4.75;;;12.50;66.20;;;;;;5083229;28;20047;-70
2021/04/21 00:44:45;;;;;;;6.97;4.35;;;12.50;66.50;;;;;;5076831;28;20028;-70
2021/04/21 00:47:18;;;;;;;8.75;4.90;;;12.40;66.60;;;;;;5071647;28;20063;-70
2021/04/21 00:49:54;;;;;;;13.27;5.20;;;12.30;66.90;;;;;;5071990;28;20107;-70
2021/04/21 00:52:31;;;;;;;9.07;4.88;;;12.30;67.00;;;;;;5088674;28;20115;-70
2021/04/21 00:55:06;;;;;;;10.02;4.93;;;12.30;67.20;;;;;;5072305;28;20485;-69
2021/04/21 00:57:45;;;;;;;8.20;5.32;;;12.20;67.30;;;;;;5092674;28;20069;-70
2021/04/21 01:00:17;;;;;;;9.35;5.25;;;12.20;67.70;;;;;;5052342;28;20128;-70
2021/04/21 01:03:06;;;;;;;8.43;4.45;;;12.20;67.80;;;;;;5080314;28;20028;-71
2021/04/21 01:05:37;;;;;;;9.07;5.38;;;12.20;67.80;;;;;;5070699;28;20120;-71
2021/04/21 01:08:05;;;;;;;9.48;5.15;;;12.20;67.90;;;;;;5071785;28;20039;-71
2021/04/21 01:10:37;;;;;;;11.80;4.78;;;12.20;68.10;;;;;;5068526;28;20240;-72
2021/04/21 01:13:03;;;;;;;7.88;4.22;;;12.10;68.00;;;;;;5073484;28;20036;-72
2021/04/21 01:15:31;;;;;;;8.27;4.85;;;12.10;68.00;;;;;;5088967;28;20028;-72
2021/04/21 01:18:17;;;;;;;6.22;4.05;;;12.10;68.10;;;;;;5058476;28;20100;-72
2021/04/21 01:20:55;;;;;;;8.88;4.50;;;12.00;67.90;;;;;;5055822;28;20039;-72
2021/04/21 01:23:39;;;;;;;7.20;4.18;;;12.00;68.50;;;;;;5071403;28;20074;-70
2021/04/21 01:26:33;;;;;;;9.75;4.88;;;12.00;68.50;;;;;;5067110;28;20040;-69
2021/04/21 01:29:00;;;;;;;7.10;4.03;;;12.00;68.50;;;;;;5071865;28;20040;-69
2021/04/21 01:31:29;;;;;;;8.20;4.68;;;12.00;68.20;;;;;;5068657;28;20035;-69
2021/04/21 01:33:56;;;;;;;9.48;4.63;;;11.90;68.50;;;;;;5071483;28;20029;-69
2021/04/21 01:36:24;;;;;;;14.88;5.22;;;11.90;68.50;;;;;;5069447;28;20028;-69
2021/04/21 01:38:51;;;;;;;9.68;4.80;;;11.80;68.30;;;;;;5070927;28;20032;-71
2021/04/21 01:41:20;;;;;;;7.65;4.60;;;11.80;68.50;;;;;;5080101;28;20036;-71
2021/04/21 01:43:50;;;;;;;6.00;3.60;;;11.80;68.40;;;;;;5075705;28;20055;-72
2021/04/21 01:46:18;;;;;;;9.50;4.15;;;11.70;68.40;;;;;;5069601;28;20029;-72
2021/04/21 01:48:44;;;;;;;8.85;4.35;;;11.70;68.70;;;;;;5069778;28;20033;-72
2021/04/21 01:51:17;;;;;;;7.78;4.10;;;11.70;68.70;;;;;;5073705;28;20032;-72
2021/04/21 01:53:45;;;;;;;10.55;4.13;;;11.70;68.90;;;;;;5073267;28;20108;-72
2021/04/21 01:56:30;;;;;;;9.32;4.32;;;11.60;69.00;;;;;;5071704;28;20047;-71
2021/04/21 01:59:20;;;;;;;14.60;4.55;;;11.60;69.00;;;;;;5069494;28;20487;-71
2021/04/21 02:01:57;;;;;;;9.10;4.30;;;11.60;68.90;;;;;;5070184;28;20060;-69
2021/04/21 02:04:33;;;;;;;7.90;4.32;;;11.60;69.00;;;;;;5084432;28;20549;-69
2021/04/21 02:07:11;;;;;;;7.55;4.07;;;11.60;69.00;;;;;;5068813;28;20036;-69
2021/04/21 02:09:54;;;;;;;7.60;4.70;;;11.50;68.80;;;;;;5081222;28;20381;-70
2021/04/21 02:12:53;;;;;;;6.85;4.20;;;11.40;69.20;;;;;;5072158;28;20020;-70
2021/04/21 02:15:33;;;;;;;8.90;4.22;;;11.40;69.20;;;;;;5060630;28;20701;-71
2021/04/21 02:17:59;;;;;;;8.45;4.15;;;11.30;69.60;;;;;;5068337;28;20040;-70
2021/04/21 02:20:31;;;;;;;11.40;4.47;;;11.30;69.60;;;;;;5071531;28;20025;-69
2021/04/21 02:23:06;;;;;;;9.88;4.50;;;11.30;69.50;;;;;;5069074;28;20028;-70
2021/04/21 02:25:55;;;;;;;11.98;4.47;;;11.30;69.50;;;;;;5070869;28;20035;-70
2021/04/21 02:28:46;;;;;;;10.77;4.53;;;11.30;69.60;;;;;;5071446;28;20150;-70
2021/04/21 02:31:25;;;;;;;7.28;3.67;;;11.30;69.60;;;;;;5070118;28;20032;-70
2021/04/21 02:34:30;;;;;;;8.93;4.28;;;11.30;70.00;;;;;;5070273;28;20025;-70
2021/04/21 02:37:10;;;;;;;8.85;4.03;;;11.30;70.10;;;;;;5052981;28;20040;-70
2021/04/21 02:39:46;;;;;;;8.13;4.60;;;11.20;70.10;;;;;;5058730;28;20106;-70
2021/04/21 02:42:36;;;;;;;11.73;4.72;;;11.20;70.40;;;;;;5084592;28;20197;-70
2021/04/21 02:45:15;;;;;;;9.93;4.15;;;11.20;70.60;;;;;;5088304;28;20028;-70
2021/04/21 02:47:49;;;;;;;7.53;4.38;;;11.20;70.70;;;;;;5068515;28;20035;-70
2021/04/21 02:50:26;;;;;;;6.75;3.95;;;11.20;70.60;;;;;;5069829;28;20028;-70
2021/04/21 02:53:07;;;;;;;9.32;4.07;;;11.20;70.70;;;;;;5069312;28;20028;-70
2021/04/21 02:55:48;;;;;;;8.68;4.10;;;11.20;70.90;;;;;;5074914;28;20036;-71
2021/04/21 02:58:35;;;;;;;5.78;3.90;;;11.10;71.10;;;;;;5081645;28;20066;-71
2021/04/21 03:01:22;;;;;;;7.80;3.97;;;11.10;71.30;;;;;;5086131;28;20278;-71
2021/04/21 03:04:16;;;;;;;8.65;4.40;;;11.00;71.60;;;;;;5085528;28;20120;-71
2021/04/21 03:06:48;;;;;;;8.18;4.03;;;11.00;71.60;;;;;;5073901;28;20071;-71
2021/04/21 03:09:24;;;;;;;8.68;3.92;;;11.00;71.70;;;;;;5072637;28;20032;-70
2021/04/21 03:11:50;;;;;;;10.77;4.15;;;11.00;71.60;;;;;;5072835;28;20029;-70
2021/04/21 03:14:25;;;;;;;10.18;5.35;;;11.00;71.70;;;;;;5071696;28;20043;-70
2021/04/21 03:16:56;;;;;;;7.47;4.20;;;11.00;71.90;;;;;;5072855;28;20032;-71
2021/04/21 03:19:48;;;;;;;7.45;4.05;;;11.00;72.10;;;;;;5054662;28;20032;-71
2021/04/21 03:22:36;;;;;;;8.50;3.93;;;10.90;72.00;;;;;;5066521;28;20044;-70
2021/04/21 03:25:05;;;;;;;10.05;3.80;;;10.90;71.90;;;;;;5069160;28;20029;-71
2021/04/21 03:27:33;;;;;;;7.32;3.70;;;10.90;72.20;;;;;;5061729;28;20028;-71
2021/04/21 03:30:06;;;;;;;7.18;4.00;;;10.90;72.30;;;;;;5089779;28;20358;-71
2021/04/21 03:32:36;;;;;;;7.95;4.07;;;10.90;72.40;;;;;;5074860;28;20111;-71
2021/04/21 03:35:05;;;;;;;10.23;4.25;;;10.90;72.60;;;;;;5089157;28;20036;-70
2021/04/21 03:37:49;;;;;;;8.95;4.20;;;10.90;72.80;;;;;;5072138;28;20025;-71
2021/04/21 03:40:16;;;;;;;8.13;3.87;;;10.80;72.90;;;;;;5067426;28;20041;-70
2021/04/21 03:42:42;;;;;;;10.70;4.03;;;10.90;72.80;;;;;;5067971;28;20403;-70
2021/04/21 03:45:09;;;;;;;11.73;4.00;;;10.90;73.00;;;;;;5072744;28;20071;-70
2021/04/21 03:47:35;;;;;;;6.95;3.78;;;10.90;73.10;;;;;;5075446;28;20078;-71
2021/04/21 03:50:06;;;;;;;8.38;4.00;;;10.80;73.10;;;;;;5072141;28;20079;-69
2021/04/21 03:52:36;;;;;;;7.82;4.43;;;10.80;73.30;;;;;;5071615;28;20024;-70
2021/04/21 03:55:02;;;;;;;10.20;4.35;;;10.80;73.40;;;;;;5072546;28;20036;-70
2021/04/21 03:57:32;;;;;;;7.18;3.58;;;10.80;73.50;;;;;;5073343;28;20024;-70
2021/04/21 04:00:01;;;;;;;9.68;3.70;;;10.80;73.50;;;;;;5092875;28;20056;-70
2021/04/21 04:02:31;;;;;;;11.40;3.88;;;10.70;73.60;;;;;;5081666;28;20025;-70
2021/04/21 04:05:00;;;;;;;10.27;4.00;;;10.70;73.60;;;;;;5070961;28;20108;-69
2021/04/21 04:07:27;;;;;;;8.10;4.03;;;10.70;73.60;;;;;;5074474;28;20425;-68
2021/04/21 04:09:57;;;;;;;8.20;3.88;;;10.70;73.80;;;;;;5091580;28;20381;-68
2021/04/21 04:12:26;;;;;;;10.00;4.22;;;10.70;73.90;;;;;;5067183;28;20407;-73
2021/04/21 04:14:53;;;;;;;7.43;4.30;;;10.70;73.60;;;;;;5088997;28;20043;-71
2021/04/21 04:17:22;;;;;;;8.57;4.30;;;10.60;73.40;;;;;;5087499;28;20128;-70
2021/04/21 04:19:48;;;;;;;11.93;4.68;;;10.60;73.10;;;;;;5091259;28;20027;-70
2021/04/21 04:22:17;;;;;;;11.90;4.50;;;10.60;73.00;;;;;;5080611;28;20036;-70
2021/04/21 04:24:56;;;;;;;11.50;4.53;;;10.60;72.90;;;;;;5070396;28;20028;-70
2021/04/21 04:27:24;;;;;;;6.38;3.78;;;10.60;73.40;;;;;;5058892;28;20039;-70
2021/04/21 04:29:51;;;;;;;6.57;4.68;;;10.50;72.80;;;;;;5071814;28;20020;-70
2021/04/21 04:32:19;;;;;;;8.32;4.65;;;10.50;72.80;;;;;;5072391;28;20032;-70
2021/04/21 04:34:47;;;;;;;7.45;3.95;;;10.60;72.60;;;;;;5092688;28;20077;-69
2021/04/21 04:37:15;;;;;;;9.60;3.92;;;10.50;72.50;;;;;;5078143;28;20024;-69
2021/04/21 04:39:41;;;;;;;6.57;4.00;;;10.60;72.50;;;;;;5084062;28;20682;-69
2021/04/21 04:42:08;;;;;;;8.52;4.60;;;10.50;72.40;;;;;;5069925;28;20385;-70
2021/04/21 04:44:36;;;;;;;8.43;3.83;;;10.50;72.30;;;;;;5072604;28;20024;-69
2021/04/21 04:47:04;;;;;;;8.35;4.18;;;10.50;72.00;;;;;;5070291;28;20067;-70
2021/04/21 04:49:36;;;;;;;6.93;3.70;;;10.50;72.00;;;;;;5079296;28;20021;-69
2021/04/21 04:52:04;;;;;;;8.57;4.45;;;10.50;72.00;;;;;;5048152;28;20029;-70
2021/04/21 04:54:30;;;;;;;9.32;4.30;;;10.50;71.80;;;;;;5092365;28;20384;-72
2021/04/21 04:56:56;;;;;;;8.77;4.97;;;10.60;71.80;;;;;;5077106;28;20029;-72
2021/04/21 04:59:24;;;;;;;12.05;4.50;;;10.60;71.70;;;;;;5071076;28;20052;-72
2021/04/21 05:01:57;;;;;;;7.25;4.18;;;10.60;71.40;;;;;;5044308;28;20068;-72
2021/04/21 05:04:31;;;;;;;9.05;4.70;;;10.60;71.50;;;;;;5082560;28;20400;-75
2021/04/21 05:07:23;;;;;;;8.75;4.38;;;10.70;71.10;;;;;;5071920;28;20032;-72
2021/04/21 05:09:51;;;;;;;9.77;4.10;;;10.70;70.80;;;;;;5052099;28;20451;-71
2021/04/21 05:12:20;;;;;;;11.57;4.10;;;10.70;70.50;;;;;;5066671;28;20025;-71
2021/04/21 05:14:48;;;;;;;11.90;5.25;;;10.80;70.30;;;;;;5091995;28;20028;-71
2021/04/21 05:17:32;;;;;;;12.70;4.32;;;10.70;70.00;;;;;;5061563;28;20036;-72
2021/04/21 05:20:26;;;;;;;13.45;6.28;;;10.80;69.60;;;;;;5052101;28;20381;-71
2021/04/21 05:23:54;;;;;;;14.60;5.60;;;10.80;69.60;;;;;;5047248;28;20044;-72
2021/04/21 05:26:57;;;;;;;11.10;5.18;;;10.90;69.40;;;;;;5070876;28;20373;-72
2021/04/21 05:30:11;;;;;;;10.15;5.03;;;10.90;69.10;;;;;;5071493;28;20020;-72
2021/04/21 05:33:05;;;;;;;12.20;5.63;;;11.00;69.30;;;;;;5075191;28;20550;-72
2021/04/21 05:36:01;;;;;;;10.35;5.50;;;11.10;68.90;;;;;;5083007;28;20032;-72
2021/04/21 05:39:02;;;;;;;10.98;5.85;;;11.10;68.90;;;;;;5060631;28;20507;-73
2021/04/21 05:42:15;;;;;;;7.60;4.78;;;11.10;68.70;;;;;;5063251;28;20089;-73
2021/04/21 05:45:11;;;;;;;11.20;5.40;;;11.20;68.90;;;;;;5008259;28;20488;-72
2021/04/21 05:48:01;;;;;;;12.98;5.60;;;11.20;68.80;;;;;;5037831;28;20017;-72
2021/04/21 05:50:48;;;;;;;14.50;5.75;;;11.30;68.50;;;;;;5067159;28;20496;-70
2021/04/21 05:53:44;;;;;;;13.43;5.80;;;11.30;68.40;;;;;;5069896;28;20464;-70
2021/04/21 05:56:39;;;;;;;8.60;5.63;;;11.40;68.30;;;;;;5071076;28;20029;-74
2021/04/21 05:59:23;;;;;;;13.65;6.03;;;11.50;68.10;;;;;;5068353;28;20139;-74
2021/04/21 06:01:49;;;;;;;12.02;5.95;;;11.50;67.80;;;;;;5050817;28;20504;-75
2021/04/21 06:04:17;;;;;;;9.00;5.35;;;11.60;67.60;;;;;;5069892;28;20032;-74
2021/04/21 06:06:43;;;;;;;12.60;5.80;;;11.60;67.30;;;;;;5071047;28;20040;-73
2021/04/21 06:09:10;;;;;;;13.07;6.82;;;11.70;67.80;;;;;;5069053;28;20028;-73
2021/04/21 06:11:36;;;;;;;12.10;5.53;;;11.80;67.10;;;;;;5076451;28;20020;-73
2021/04/21 06:14:06;;;;;;;11.65;5.75;;;11.80;66.70;;;;;;5081146;28;20029;-73
2021/04/21 06:16:33;;;;;;;8.63;5.35;;;11.90;66.70;;;;;;5071305;28;20047;-72
2021/04/21 06:19:06;;;;;;;13.38;6.85;;;12.00;66.70;;;;;;5068061;28;20107;-72
2021/04/21 06:21:34;;;;;;;11.25;6.10;;;12.00;66.40;;;;;;5070867;28;20036;-74
2021/04/21 06:24:00;;;;;;;10.57;5.88;;;12.10;66.30;;;;;;5051374;28;20027;-71
2021/04/21 06:26:31;;;;;;;10.82;6.25;;;12.10;66.00;;;;;;5054674;28;20029;-76
2021/04/21 06:29:08;;;;;;;14.10;6.63;;;12.20;66.00;;;;;;5081302;28;20414;-71
2021/04/21 06:31:52;;;;;;;12.40;6.43;;;12.20;65.30;;;;;;5095092;28;20036;-71
2021/04/21 06:34:18;;;;;;;14.48;5.70;;;12.20;65.10;;;;;;5071116;28;20093;-72
2021/04/21 06:36:55;;;;;;;8.90;5.88;;;12.30;65.20;;;;;;5093713;28;20058;-72
2021/04/21 06:39:23;;;;;;;10.43;5.75;;;12.30;64.80;;;;;;5078880;28;20029;-72
2021/04/21 06:42:03;;;;;;;13.65;6.50;;;12.40;64.90;;;;;;5073429;28;20038;-73
2021/04/21 06:44:46;;;;;;;9.55;6.00;;;12.40;64.90;;;;;;5064477;28;20032;-73
2021/04/21 06:47:27;;;;;;;8.52;5.63;;;12.50;64.40;;;;;;5073665;28;20355;-72
2021/04/21 06:50:00;;;;;;;17.17;6.80;;;12.50;63.80;;;;;;5073543;28;20435;-70
2021/04/21 06:52:37;;;;;;;10.48;6.10;;;12.50;64.20;;;;;;5068232;28;20103;-69
2021/04/21 06:55:08;;;;;;;15.07;6.32;;;12.60;62.80;;;;;;5071286;28;20064;-69
2021/04/21 06:57:34;;;;;;;13.27;6.28;;;12.60;62.60;;;;;;5076541;28;20154;-69
2021/04/21 07:00:11;;;;;;;11.65;6.30;;;12.70;62.00;;;;;;5077145;28;20135;-69
2021/04/21 07:02:43;;;;;;;12.60;6.25;;;12.70;61.80;;;;;;5058702;28;20024;-69
2021/04/21 07:05:31;;;;;;;12.02;5.97;;;12.80;61.60;;;;;;5086521;28;20020;-73
2021/04/21 07:08:19;;;;;;;9.63;5.35;;;12.80;62.30;;;;;;5049398;28;20060;-70
2021/04/21 07:10:54;;;;;;;9.25;5.72;;;12.90;61.00;;;;;;5070159;28;20497;-70
2021/04/21 07:13:23;;;;;;;12.02;6.20;;;12.90;61.00;;;;;;5073433;28;20028;-70
2021/04/21 07:15:50;;;;;;;10.32;6.57;;;13.00;60.70;;;;;;5074272;28;20272;-71
2021/04/21 07:18:19;;;;;;;13.82;6.40;;;13.10;60.70;;;;;;5066623;28;20052;-71
2021/04/21 07:20:45;;;;;;;10.93;6.32;;;13.10;59.90;;;;;;5064115;28;20101;-72
2021/04/21 07:23:12;;;;;;;10.45;6.22;;;13.20;59.50;;;;;;5067023;28;20014;-72
2021/04/21 07:25:39;;;;;;;11.25;5.95;;;13.20;58.70;;;;;;5063395;28;20028;-70
2021/04/21 07:28:05;;;;;;;12.93;6.13;;;13.30;58.60;;;;;;5072876;28;20028;-71
2021/04/21 07:30:32;;;;;;;10.52;6.10;;;13.40;58.40;;;;;;5094301;28;20051;-71
2021/04/21 07:32:59;;;;;;;8.55;5.72;;;13.50;57.20;;;;;;5083005;28;20389;-71
2021/04/21 07:35:27;;;;;;;11.23;5.75;;;13.50;57.20;;;;;;5074179;28;20032;-71
2021/04/21 07:37:56;;;;;;;11.48;5.75;;;13.60;57.10;;;;;;5070989;28;20024;-71
2021/04/21 07:40:35;;;;;;;12.63;5.78;;;13.60;56.80;;;;;;5077440;28;20036;-70
2021/04/21 07:43:19;;;;;;;10.70;5.97;;;13.70;56.50;;;;;;5055648;28;20044;-71
2021/04/21 07:45:55;;;;;;;10.90;5.22;;;13.80;55.10;;;;;;5090147;28;20071;-70
2021/04/21 07:48:32;;;;;;;10.73;5.40;;;13.90;54.90;;;;;;5068410;28;20031;-73
2021/04/21 07:50:59;;;;;;;9.57;5.05;;;13.90;55.10;;;;;;5053694;28;20029;-70
2021/04/21 07:53:24;;;;;;;10.32;5.28;;;13.90;54.60;;;;;;5065361;28;20032;-71
2021/04/21 07:56:01;;;;;;;14.00;5.47;;;14.00;54.50;;;;;;5054830;28;20033;-69
2021/04/21 07:58:27;;;;;;;12.27;5.65;;;14.10;54.40;;;;;;5065357;28;20026;-68
2021/04/21 08:00:53;;;;;;;9.60;5.50;;;14.20;54.20;;;;;;5063940;28;20029;-68
2021/04/21 08:03:25;;;;;;;13.77;6.07;;;14.20;53.40;;;;;;5062735;28;20393;-68
2021/04/21 08:05:51;;;;;;;11.35;6.25;;;14.30;52.90;;;;;;5068074;28;20087;-68
2021/04/21 08:08:26;;;;;;;11.60;5.65;;;14.30;52.00;;;;;;5073705;28;20306;-68
2021/04/21 08:10:52;;;;;;;9.82;5.25;;;14.30;51.20;;;;;;5072417;28;20024;-68
2021/04/21 08:13:45;;;;;;;13.48;6.32;;;14.40;52.10;;;;;;5067138;28;20072;-68
2021/04/21 08:16:26;;;;;;;9.27;5.72;;;14.40;52.20;;;;;;5057527;28;20029;-68
2021/04/21 08:18:56;;;;;;;9.98;5.03;;;14.60;51.40;;;;;;5061557;28;20043;-68
2021/04/21 08:21:38;;;;;;;7.85;5.07;;;14.60;52.00;;;;;;5061594;28;20120;-69
2021/04/21 08:24:09;;;;;;;15.60;5.47;;;14.70;51.80;;;;;;5070295;28;20033;-70
2021/04/21 08:26:35;;;;;;;11.05;4.93;;;14.80;51.10;;;;;;5062900;28;20102;-71
2021/04/21 08:29:02;;;;;;;15.38;5.22;;;14.80;50.80;;;;;;5052487;28;20028;-67
2021/04/21 08:31:29;;;;;;;9.00;5.18;;;15.00;50.30;;;;;;5070866;28;20025;-69
2021/04/21 08:33:55;;;;;;;9.70;5.22;;;15.00;49.80;;;;;;5065844;28;20029;-68
2021/04/21 08:36:21;;;;;;;8.15;4.75;;;15.10;49.80;;;;;;5067881;28;20077;-68
2021/04/21 08:38:47;;;;;;;10.25;5.10;;;15.10;49.90;;;;;;5069875;28;20032;-68
2021/04/21 08:41:16;;;;;;;9.10;5.57;;;15.20;50.30;;;;;;5065370;28;20032;-68
2021/04/21 08:43:45;;;;;;;8.07;4.88;;;15.30;49.70;;;;;;5069778;28;20025;-68
2021/04/21 08:46:13;;;;;;;9.10;4.40;;;15.40;49.20;;;;;;5065703;28;20047;-68
2021/04/21 08:48:41;;;;;;;7.75;4.45;;;15.50;49.20;;;;;;5066774;28;20086;-69
2021/04/21 08:51:07;;;;;;;8.80;4.47;;;15.50;47.60;;;;;;5070645;28;20032;-69
2021/04/21 08:53:36;;;;;;;7.28;3.75;;;15.60;46.90;;;;;;5068638;28;20479;-68
2021/04/21 08:56:04;;;;;;;7.90;3.45;;;15.70;46.50;;;;;;5062182;28;20551;-68
2021/04/21 08:58:34;;;;;;;8.10;3.88;;;15.70;45.50;;;;;;5083200;28;20541;-69
2021/04/21 09:01:01;;;;;;;13.98;4.65;;;15.80;45.10;;;;;;5071765;28;20037;-68
2021/04/21 09:03:27;;;;;;;6.82;4.10;;;15.70;45.20;;;;;;5069330;28;20017;-69
2021/04/21 09:05:52;;;;;;;8.15;5.15;;;15.80;45.60;;;;;;5071074;28;20039;-68
2021/04/21 09:08:20;;;;;;;7.05;3.92;;;15.90;45.30;;;;;;5069853;28;20111;-68
2021/04/21 09:10:47;;;;;;;9.25;4.53;;;16.00;45.90;;;;;;5066020;28;20036;-68
2021/04/21 09:13:13;;;;;;;12.13;5.47;;;16.10;45.50;;;;;;5069674;28;20123;-69
2021/04/21 09:15:39;;;;;;;8.15;4.97;;;16.10;45.10;;;;;;5071666;28;20162;-69
2021/04/21 09:18:05;;;;;;;9.07;5.80;;;16.20;44.80;;;;;;5066887;28;20487;-69
2021/04/21 09:20:30;;;;;;;8.40;5.53;;;16.30;45.40;;;;;;5072297;28;20055;-69
2021/04/21 09:22:58;;;;;;;10.10;5.88;;;16.40;45.30;;;;;;5076658;28;20024;-69
2021/04/21 09:25:24;;;;;;;9.52;4.90;;;16.50;45.70;;;;;;5082368;28;20025;-68
2021/04/21 09:27:55;;;;;;;9.25;5.90;;;16.50;45.70;;;;;;5074406;28;20020;-68
2021/04/21 09:30:22;;;;;;;9.20;5.75;;;16.60;45.70;;;;;;5067701;28;20021;-68
2021/04/21 09:32:53;;;;;;;12.02;6.60;;;16.70;45.60;;;;;;5061253;28;20037;-68
2021/04/21 09:35:28;;;;;;;9.35;5.97;;;16.80;45.10;;;;;;5066002;28;20033;-68
2021/04/21 09:37:54;;;;;;;;;;;16.90;45.80;;;;;;5064438;28;20118;-68
2021/04/21 09:40:40;;;;;;;11.45;6.47;;;17.00;46.80;;;;;;5069645;28;19924;-68
2021/04/21 09:43:09;;;;;;;8.65;5.32;;;17.00;45.10;;;;;;5060691;28;20039;-69
2021/04/21 09:45:43;;;;;;;12.25;5.60;;;17.00;45.00;;;;;;5070677;28;20112;-70
2021/04/21 09:48:11;;;;;;;9.98;5.18;;;17.10;45.30;;;;;;5068483;28;20037;-70
2021/04/21 09:50:39;;;;;;;10.68;5.28;;;17.20;45.10;;;;;;5068996;28;20032;-71
2021/04/21 09:53:33;;;;;;;9.60;5.18;;;17.30;45.30;;;;;;5072835;28;20537;-71
2021/04/21 09:55:59;;;;;;;11.07;5.50;;;17.40;45.20;;;;;;5084004;28;20029;-71
2021/04/21 09:58:33;;;;;;;8.77;5.63;;;17.50;45.30;;;;;;5081809;28;20123;-71
2021/04/21 10:00:59;;;;;;;9.95;5.68;;;17.60;44.80;;;;;;5091768;28;20511;-71
2021/04/21 10:03:24;;;;;;;8.02;5.15;;;17.70;45.00;;;;;;5075400;28;20032;-71
2021/04/21 10:05:50;;;;;;;8.35;5.95;;;17.70;43.50;;;;;;5071165;28;20358;-70
2021/04/21 10:08:26;;;;;;;11.25;5.75;;;17.70;43.40;;;;;;5069772;28;20059;-70
2021/04/21 10:11:01;;;;;;;8.85;4.95;;;17.70;43.60;;;;;;5076389;28;20149;-71
2021/04/21 10:13:38;;;;;;;13.60;5.72;;;17.80;43.20;;;;;;5068292;28;20024;-71
2021/04/21 10:16:05;;;;;;;8.25;5.30;;;17.90;43.10;;;;;;5071469;28;20036;-73
2021/04/21 10:18:31;;;;;;;8.18;5.20;;;17.90;42.80;;;;;;5069956;28;20029;-71
2021/04/21 10:20:57;;;;;;;8.35;4.90;;;18.00;42.80;;;;;;5071275;28;20437;-71
2021/04/21 10:23:23;;;;;;;8.75;5.60;;;18.00;43.10;;;;;;5070973;28;20139;-71
2021/04/21 10:25:49;;;;;;;10.48;5.45;;;18.10;43.30;;;;;;5059817;28;20051;-71
2021/04/21 10:28:15;;;;;;;7.97;5.57;;;18.10;43.20;;;;;;5059105;28;20052;-70
2021/04/21 10:30:41;;;;;;;9.55;5.78;;;18.20;43.40;;;;;;5072023;28;20293;-71
2021/04/21 10:33:09;;;;;;;9.73;5.70;;;18.30;43.20;;;;;;5069120;28;20484;-71
2021/04/21 10:35:34;;;;;;;13.93;5.90;;;18.30;43.10;;;;;;5070634;28;20111;-71
2021/04/21 10:38:00;;;;;;;10.98;5.00;;;18.40;43.30;;;;;;5047805;28;20039;-71
2021/04/21 10:40:28;;;;;;;7.88;5.30;;;18.40;43.60;;;;;;5051005;28;20040;-71
2021/04/21 10:42:58;;;;;;;8.68;4.70;;;18.50;43.10;;;;;;5046692;28;20550;-71
2021/04/21 10:45:25;;;;;;;8.02;5.22;;;18.50;42.90;;;;;;5066468;28;20095;-71
2021/04/21 10:47:53;;;;;;;9.80;5.38;;;18.50;42.50;;;;;;5058455;28;20025;-71
2021/04/21 10:50:42;;;;;;;10.80;5.15;;;18.60;42.80;;;;;;5083966;28;20020;-71
2021/04/21 10:53:43;;;;;;;10.77;6.22;;;18.70;42.80;;;;;;5073805;28;20400;-71
2021/04/21 10:56:22;;;;;;;9.82;4.93;;;18.90;42.30;;;;;;5070450;28;20031;-71
2021/04/21 10:58:53;;;;;;;9.35;4.25;;;18.90;40.50;;;;;;5083766;28;20500;-71
2021/04/21 11:01:36;;;;;;;8.60;4.60;;;18.90;40.90;;;;;;5090818;28;20048;-71
2021/04/21 11:04:04;;;;;;;8.73;4.10;;;19.00;41.10;;;;;;5068855;28;20034;-71
2021/04/21 11:06:39;;;;;;;5.07;3.67;;;19.00;40.60;;;;;;5033051;28;20032;-71
2021/04/21 11:09:09;;;;;;;7.68;3.47;;;19.10;39.70;;;;;;5083446;28;20411;-71
2021/04/21 11:11:36;;;;;;;5.88;3.72;;;19.10;40.20;;;;;;5090699;28;20468;-71
2021/04/21 11:14:03;;;;;;;7.60;3.20;;;19.20;40.80;;;;;;5087791;28;20477;-70
2021/04/21 11:16:31;;;;;;;6.00;3.63;;;19.20;39.60;;;;;;5094717;28;20451;-70
2021/04/21 11:19:19;;;;;;;6.15;3.40;;;19.30;39.40;;;;;;5075093;28;20021;-71
2021/04/21 11:21:49;;;;;;;6.95;3.90;;;19.40;37.90;;;;;;5072220;28;20119;-71
2021/04/21 11:24:15;;;;;;;7.63;3.92;;;19.40;39.30;;;;;;5055045;28;20028;-70
2021/04/21 11:26:45;;;;;;;8.93;4.13;;;19.30;39.00;;;;;;5074029;28;20237;-71
2021/04/21 11:29:25;;;;;;;7.43;4.35;;;19.40;39.50;;;;;;5072660;28;20024;-71
2021/04/21 11:31:51;;;;;;;5.93;3.85;;;19.40;39.20;;;;;;5072897;28;20403;-71
2021/04/21 11:34:31;;;;;;;9.25;4.05;;;19.40;39.60;;;;;;5073526;28;20435;-71
2021/04/21 11:37:17;;;;;;;8.63;3.95;;;19.30;39.50;;;;;;5071851;28;20491;-71
2021/04/21 11:40:07;;;;;;;7.22;4.15;;;19.20;39.80;;;;;;5064251;28;20487;-70
2021/04/21 11:42:30;;;;;;;10.27;4.43;;;19.10;39.90;;;;;;5083530;28;20045;-71
2021/04/21 11:45:12;;;;;;;6.70;4.35;;;19.10;40.20;;;;;;5073822;28;20082;-70
2021/04/21 11:48:17;;;;;;;6.38;3.63;;;19.00;40.00;;;;;;5071995;28;20024;-71
2021/04/21 11:50:45;;;;;;;7.68;3.78;;;18.90;39.60;;;;;;5079349;28;20492;-71
2021/04/21 11:53:14;;;;;;;6.32;3.65;;;18.80;40.10;;;;;;5080332;28;20115;-71
2021/04/21 11:55:56;;;;;;;8.13;3.45;;;18.70;40.10;;;;;;5053712;28;20021;-71
2021/04/21 11:58:30;;;;;;;6.03;3.20;;;18.70;40.30;;;;;;5070790;28;20392;-71
2021/04/21 12:00:57;;;;;;;11.65;3.63;;;18.80;39.60;;;;;;5093959;28;20036;-71
2021/04/21 12:03:28;;;;;;;8.18;4.10;;;18.70;39.50;;;;;;5072704;28;20047;-71
2021/04/21 12:05:58;;;;;;;5.85;3.65;;;18.70;39.40;;;;;;5075927;28;20086;-70
2021/04/21 12:08:34;;;;;;;10.32;4.28;;;18.60;39.90;;;;;;5078339;28;20493;-71
2021/04/21 12:11:01;;;;;;;9.05;4.30;;;18.50;39.90;;;;;;5053561;28;20029;-71
2021/04/21 12:13:30;;;;;;;7.47;4.10;;;18.40;39.80;;;;;;5066056;28;20024;-71
2021/04/21 12:16:07;;;;;;;9.30;3.50;;;18.40;40.00;;;;;;5073616;28;20544;-71
2021/04/21 12:18:36;;;;;;;5.32;3.25;;;18.40;40.40;;;;;;5073775;28;20115;-72
2021/04/21 12:21:05;;;;;;;5.68;3.75;;;18.40;40.00;;;;;;5072817;28;20064;-71
2021/04/21 12:23:36;;;;;;;8.27;3.53;;;18.30;39.30;;;;;;5050448;28;20028;-71
2021/04/21 12:26:04;;;;;;;6.20;3.70;;;18.30;39.30;;;;;;5059843;28;20029;-71
2021/04/21 12:28:42;;;;;;;6.43;3.65;;;18.40;39.60;;;;;;5065617;28;20106;-70
2021/04/21 12:31:08;;;;;;;5.30;3.10;;;18.40;39.30;;;;;;5072119;28;20087;-70
2021/04/21 12:33:34;;;;;;;7.05;3.80;;;18.40;39.30;;;;;;5079184;28;20024;-71
2021/04/21 12:36:00;;;;;;;5.50;3.42;;;18.40;39.10;;;;;;5090271;28;20039;-71
2021/04/21 12:38:27;;;;;;;4.80;3.10;;;18.40;39.40;;;;;;5091502;28;20380;-71
2021/04/21 12:40:53;;;;;;;6.35;3.25;;;18.40;38.50;;;;;;5089342;28;20028;-71
2021/04/21 12:43:19;;;;;;;6.97;3.38;;;18.50;38.70;;;;;;5093071;28;20038;-71
2021/04/21 12:45:45;;;;;;;7.50;3.20;;;18.40;38.10;;;;;;5076232;28;20099;-71
2021/04/21 12:48:26;;;;;;;6.40;3.38;;;18.50;38.00;;;;;;5072661;28;20059;-71
2021/04/21 12:50:54;;;;;;;6.20;2.70;;;18.50;37.30;;;;;;5069917;28;20035;-71
2021/04/21 12:53:22;;;;;;;8.45;3.40;;;18.40;37.60;;;;;;5072406;28;20028;-71
2021/04/21 12:56:01;;;;;;;8.02;3.50;;;18.50;37.50;;;;;;5080829;28;20078;-71
2021/04/21 12:58:35;;;;;;;4.75;2.90;;;18.50;37.30;;;;;;5091079;28;20556;-72
2021/04/21 13:01:09;;;;;;;6.15;3.13;;;18.40;37.40;;;;;;5089548;28;20068;-71
2021/04/21 13:03:35;;;;;;;6.53;3.50;;;18.40;37.40;;;;;;5087024;28;20384;-71
2021/04/21 13:06:06;;;;;;;5.85;2.85;;;18.60;37.90;;;;;;5070911;28;20033;-71
2021/04/21 13:08:33;;;;;;;5.95;3.20;;;18.60;38.00;;;;;;5070474;28;20079;-71
2021/04/21 13:11:00;;;;;;;8.07;3.60;;;18.70;38.00;;;;;;5069902;28;20488;-71
2021/04/21 13:13:29;;;;;;;9.05;3.55;;;18.80;38.30;;;;;;5054038;28;20025;-71
2021/04/21 13:15:56;;;;;;;9.63;3.67;;;18.90;38.80;;;;;;5071066;28;20453;-71